Jack Holland — WDF3615 — position and weather

sailwx.info

Track history (hours):
 
Tides and Currents Weather Stations Pressure Air Temp Water Temp Dewpoint Dewpoint Depression Visibility Wind Speed Wind Dir Waves Ship Positions

Jack Holland

Owner: Norfolk Tug Company, Norfolk, VA. More information available from US FCC via Universal Licensing System and Coast Guard Vessel Documentation Center.

Last reported at 2017-Dec-10 20:11 UTC. Time now 2017-Dec-14 04:32 UTC.
Position N 36°57' W 076°22'.

Length 22 m; draft 2.5 m.

Type: Tug. MMSI: 367442020.

Date/timePositionNaut miles runAvg speedWind from/ knotsBaromVisibWave heightAir tempDewpointWater temp
2017-Dec-10 20:11N 36°57' W 076°22'1 6.1
2017-Dec-10 19:58N 36°57' W 076°20'3 7.2
2017-Dec-10 19:30N 36°54' W 076°20'3 6.2
2017-Dec-10 19:00N 36°51' W 076°18'3 6.8
2017-Dec-10 18:30N 36°48' W 076°18'2 3.2
2017-Dec-10 18:00N 36°46' W 076°18'2 3.3
2017-Dec-10 17:30N 36°48' W 076°18'3 5.8
2017-Dec-10 17:00N 36°50' W 076°16'0 0.4
2017-Dec-10 16:30N 36°50' W 076°16'0 0.0
2017-Dec-10 16:00N 36°50' W 076°16'0 0.0
2017-Dec-10 15:30N 36°50' W 076°16'0 0.0
2017-Dec-10 15:00N 36°50' W 076°16'0 0.0
2017-Dec-10 14:30N 36°50' W 076°16'0 0.0
2017-Dec-10 14:00N 36°50' W 076°16'0 0.0
2017-Dec-10 13:30N 36°50' W 076°16'0 0.0
2017-Dec-10 13:00N 36°50' W 076°16'0 0.0
2017-Dec-10 12:30N 36°50' W 076°16'0 0.0
2017-Dec-10 12:00N 36°50' W 076°16'0 0.0
2017-Dec-10 11:30N 36°50' W 076°16'0 0.0
2017-Dec-10 11:00N 36°50' W 076°16'0 0.0
2017-Dec-10 10:30N 36°50' W 076°16'0 0.0
2017-Dec-10 10:00N 36°50' W 076°16'0 0.0
2017-Dec-10 09:30N 36°50' W 076°16'0 0.0
2017-Dec-10 09:00N 36°50' W 076°16'0 0.0
2017-Dec-10 08:30N 36°50' W 076°16'0 0.0
2017-Dec-10 08:00N 36°50' W 076°16'0 0.0
2017-Dec-10 07:30N 36°50' W 076°16'0 0.0
2017-Dec-10 07:00N 36°50' W 076°16'0 0.0
2017-Dec-10 06:30N 36°50' W 076°16'0 0.0
2017-Dec-10 06:00N 36°50' W 076°16'0 0.0
2017-Dec-10 05:30N 36°50' W 076°16'0 0.0
2017-Dec-10 05:00N 36°50' W 076°16'0 0.0
2017-Dec-10 04:30N 36°50' W 076°16'0 0.0
2017-Dec-10 04:00N 36°50' W 076°16'0 0.0
2017-Dec-10 03:30N 36°50' W 076°16'0 0.0
2017-Dec-10 03:00N 36°50' W 076°16'0 0.0
2017-Dec-10 02:30N 36°50' W 076°16'0 0.0
2017-Dec-10 02:00N 36°50' W 076°16'0 0.0
2017-Dec-10 01:30N 36°50' W 076°16'0 0.0
2017-Dec-10 01:00N 36°50' W 076°16'0 0.0
2017-Dec-10 00:30N 36°50' W 076°16'0 0.0
2017-Dec-10 00:00N 36°50' W 076°16'0 0.0
2017-Dec-09 23:30N 36°50' W 076°16'0 0.0
2017-Dec-09 23:00N 36°50' W 076°16'0 0.1
2017-Dec-09 22:30N 36°50' W 076°16'1 2.4
2017-Dec-09 22:00N 36°50' W 076°18'3 6.4
2017-Dec-09 21:30N 36°47' W 076°18'1 2.4
2017-Dec-09 21:00N 36°46' W 076°18'0 0.0
2017-Dec-09 20:30N 36°46' W 076°18'0 0.0
2017-Dec-09 20:00N 36°46' W 076°18'0 0.0
2017-Dec-09 19:30N 36°46' W 076°18'0 0.0
2017-Dec-09 19:00N 36°46' W 076°18'0 0.0
2017-Dec-09 18:30N 36°46' W 076°18'0 0.0
2017-Dec-09 18:00N 36°46' W 076°18'0 0.0
2017-Dec-09 17:30N 36°46' W 076°18'0 0.0
2017-Dec-09 17:00N 36°46' W 076°18'0 0.0
2017-Dec-09 16:30N 36°46' W 076°18'0 0.0
2017-Dec-09 16:00N 36°46' W 076°18'0 0.0
2017-Dec-09 15:30N 36°46' W 076°18'0 0.0
2017-Dec-09 15:00N 36°46' W 076°18'0 0.0
2017-Dec-09 14:30N 36°46' W 076°18'0 0.0
2017-Dec-09 14:00N 36°46' W 076°18'0 0.0
2017-Dec-09 13:30N 36°46' W 076°18'0 0.0
2017-Dec-09 13:00N 36°46' W 076°18'0 0.0
2017-Dec-09 12:30N 36°46' W 076°18'0 0.1
2017-Dec-09 12:00N 36°46' W 076°18'1 1.3
2017-Dec-09 11:30N 36°47' W 076°18'0 0.8
2017-Dec-09 11:00N 36°47' W 076°18'3 5.1
2017-Dec-09 10:30N 36°49' W 076°17'3 5.6
2017-Dec-09 10:00N 36°52' W 076°19'3 5.4
2017-Dec-09 09:30N 36°54' W 076°20'4 0.1
2017-Dec-07 23:48N 36°57' W 076°24'3 6.5
2017-Dec-07 23:20N 36°56' W 076°20'3 8.0
2017-Dec-07 23:00N 36°54' W 076°20'4 7.4
2017-Dec-07 22:30N 36°51' W 076°18'1 2.6
2017-Dec-07 22:00N 36°50' W 076°16'0 0.0
2017-Dec-07 21:30N 36°50' W 076°16'0 0.0
2017-Dec-07 21:00N 36°50' W 076°16'0 0.0
2017-Dec-07 20:30N 36°50' W 076°16'0 0.0
2017-Dec-07 20:00N 36°50' W 076°16'0 0.0
2017-Dec-07 19:30N 36°50' W 076°16'0 0.0
2017-Dec-07 19:00N 36°50' W 076°16'0 0.0
2017-Dec-07 18:30N 36°50' W 076°16'0 0.0
2017-Dec-07 18:00N 36°50' W 076°16'0 0.0
2017-Dec-07 17:30N 36°50' W 076°16'0 0.0
2017-Dec-07 17:00N 36°50' W 076°16'0 0.0
2017-Dec-07 16:30N 36°50' W 076°16'0 0.4
2017-Dec-07 16:00N 36°50' W 076°16'1 3.0
2017-Dec-07 15:30N 36°49' W 076°17'0 0.0
2017-Dec-07 15:00N 36°49' W 076°17'0 0.0
2017-Dec-07 14:30N 36°49' W 076°17'0 0.0
2017-Dec-07 14:00N 36°49' W 076°17'0 0.1
2017-Dec-07 13:30N 36°49' W 076°17'1 2.8
2017-Dec-07 13:00N 36°50' W 076°16'0 0.0
2017-Dec-07 12:30N 36°50' W 076°16'0 0.0
2017-Dec-07 12:00N 36°50' W 076°16'0 0.0
2017-Dec-07 11:30N 36°50' W 076°16'0 0.0
2017-Dec-07 11:00N 36°50' W 076°16'0 0.0
2017-Dec-07 10:30N 36°50' W 076°16'1 1.9
2017-Dec-07 10:00N 36°51' W 076°17'3 5.6
2017-Dec-07 09:30N 36°52' W 076°20'3 5.5
2017-Dec-07 09:00N 36°55' W 076°20'2 4.6
2017-Dec-07 08:29N 36°57' W 076°22'  
2017-Dec-04 02:45N 36°57' W 076°24'3 7.4
2017-Dec-04 02:22N 36°56' W 076°20'3 8.2
2017-Dec-04 02:00N 36°53' W 076°20'4 7.7
2017-Dec-04 01:30N 36°50' W 076°17'2 3.0
2017-Dec-04 01:00N 36°51' W 076°19'3 5.0
2017-Dec-04 00:30N 36°53' W 076°21'0 0.0
2017-Dec-03 23:53N 36°53' W 076°21'0 0.0
2017-Dec-03 23:14N 36°53' W 076°21'0 0.0
2017-Dec-03 22:46N 36°53' W 076°21'0 0.0
2017-Dec-03 22:28N 36°53' W 076°21'0 0.0
2017-Dec-03 21:57N 36°53' W 076°21'0 0.0
2017-Dec-03 18:12N 36°53' W 076°21'0 0.0
2017-Dec-03 17:52N 36°53' W 076°21'0 0.0
2017-Dec-03 17:09N 36°53' W 076°21'0 0.0
2017-Dec-03 16:55N 36°53' W 076°21'3 7.8
2017-Dec-03 16:30N 36°51' W 076°18'1 2.8
2017-Dec-03 16:00N 36°50' W 076°16'0 0.0
2017-Dec-03 15:30N 36°50' W 076°16'0 0.0
2017-Dec-03 14:59N 36°50' W 076°16'0 0.0
2017-Dec-03 14:31N 36°50' W 076°16'0 0.0
2017-Dec-03 14:00N 36°50' W 076°16'0 0.0
2017-Dec-03 13:30N 36°50' W 076°16'0 0.0
2017-Dec-03 12:58N 36°50' W 076°16'0 0.0
2017-Dec-03 12:31N 36°50' W 076°16'0 0.0
2017-Dec-03 11:49N 36°50' W 076°16'0 0.0
2017-Dec-03 11:30N 36°50' W 076°16'0 0.0
2017-Dec-03 11:01N 36°50' W 076°16'0 0.0
2017-Dec-03 10:30N 36°50' W 076°16'0 0.0
2017-Dec-03 10:00N 36°50' W 076°16'0 0.0
2017-Dec-03 09:18N 36°50' W 076°16'0 0.0
2017-Dec-03 08:59N 36°50' W 076°16'0 0.0
2017-Dec-03 08:28N 36°50' W 076°16'0 0.0
2017-Dec-03 08:00N 36°50' W 076°16'0 0.0
2017-Dec-03 07:30N 36°50' W 076°16'0 0.0
2017-Dec-03 07:00N 36°50' W 076°16'0 0.0
2017-Dec-03 06:30N 36°50' W 076°16'0 0.0
2017-Dec-03 06:00N 36°50' W 076°16'0 0.0
2017-Dec-03 05:30N 36°50' W 076°16'0 0.0
2017-Dec-03 05:00N 36°50' W 076°16'0 0.0
2017-Dec-03 04:30N 36°50' W 076°16'0 0.0
2017-Dec-03 04:00N 36°50' W 076°16'0 0.0
2017-Dec-03 03:30N 36°50' W 076°16'0 0.0
2017-Dec-03 03:00N 36°50' W 076°16'0 0.7
2017-Dec-03 02:30N 36°50' W 076°17'0 0.5
2017-Dec-03 02:00N 36°50' W 076°17'2 4.7
2017-Dec-03 01:30N 36°48' W 076°17'2 4.2
2017-Dec-03 01:00N 36°46' W 076°18'0 0.1
2017-Dec-03 00:30N 36°46' W 076°18'0 0.0
2017-Dec-03 00:00N 36°46' W 076°18'0 0.0
2017-Dec-02 23:30N 36°46' W 076°18'0 0.0
2017-Dec-02 23:00N 36°46' W 076°18'0 0.0
2017-Dec-02 22:30N 36°46' W 076°18'0 0.0
2017-Dec-02 22:00N 36°46' W 076°18'0 0.0
2017-Dec-02 21:30N 36°46' W 076°18'0 0.0
2017-Dec-02 21:00N 36°46' W 076°18'0 0.0
2017-Dec-02 20:30N 36°46' W 076°18'0 0.0
2017-Dec-02 20:00N 36°46' W 076°18'0 0.0
2017-Dec-02 19:30N 36°46' W 076°18'0 0.0
2017-Dec-02 19:00N 36°46' W 076°18'0 0.0
2017-Dec-02 18:30N 36°46' W 076°18'0 0.0
2017-Dec-02 18:01N 36°46' W 076°18'0 0.0
2017-Dec-02 17:30N 36°46' W 076°18'0 0.0
2017-Dec-02 17:00N 36°46' W 076°18'0 0.0
2017-Dec-02 16:30N 36°46' W 076°18'1 2.2
2017-Dec-02 16:00N 36°47' W 076°18'3 5.3
2017-Dec-02 15:30N 36°50' W 076°18'3 5.5
2017-Dec-02 15:00N 36°52' W 076°19'3 5.8
2017-Dec-02 14:30N 36°55' W 076°20'90 3.3
2017-Dec-01 10:57N 38°21' W 075°52'3 6.6
2017-Dec-01 10:29N 38°19' W 075°55'5 6.6
2017-Dec-01 09:45N 38°15' W 075°56'19 6.6
2017-Dec-01 06:48N 37°55' W 075°57'2 7.9
2017-Dec-01 06:30N 37°53' W 075°57'54 8.4
2017-Dec-01 00:04N 37°01' W 076°17'5 7.3
2017-Nov-30 23:26N 36°57' W 076°20'4 8.2
2017-Nov-30 22:59N 36°53' W 076°20'3 7.2
2017-Nov-30 22:30N 36°51' W 076°18'3 6.4
2017-Nov-30 22:00N 36°47' W 076°18'1 2.7
2017-Nov-30 21:30N 36°46' W 076°18'0 0.0
2017-Nov-30 21:00N 36°46' W 076°18'0 0.0
2017-Nov-30 20:30N 36°46' W 076°18'  
Track history (hours):
 
Tides and Currents Weather Stations Pressure Air Temp Water Temp Dewpoint Dewpoint Depression Visibility Wind Speed Wind Dir Waves Ship Positions

Jack Holland

Owner: Norfolk Tug Company, Norfolk, VA. More information available from US FCC via Universal Licensing System and Coast Guard Vessel Documentation Center.

Last reported at 2017-Dec-10 20:11 UTC. Time now 2017-Dec-14 04:32 UTC.
Position N 36°57' W 076°22'.

Length 22 m; draft 2.5 m.

Type: Tug. MMSI: 367442020.

Date/timePositionNaut miles runAvg speedWind from/ knotsBaromVisibWave heightAir tempDewpointWater temp
2017-Dec-10 20:11N 36°57' W 076°22'1 6.1
2017-Dec-10 19:58N 36°57' W 076°20'3 7.2
2017-Dec-10 19:30N 36°54' W 076°20'3 6.2
2017-Dec-10 19:00N 36°51' W 076°18'3 6.8
2017-Dec-10 18:30N 36°48' W 076°18'2 3.2
2017-Dec-10 18:00N 36°46' W 076°18'2 3.3
2017-Dec-10 17:30N 36°48' W 076°18'3 5.8
2017-Dec-10 17:00N 36°50' W 076°16'0 0.4
2017-Dec-10 16:30N 36°50' W 076°16'0 0.0
2017-Dec-10 16:00N 36°50' W 076°16'0 0.0
2017-Dec-10 15:30N 36°50' W 076°16'0 0.0
2017-Dec-10 15:00N 36°50' W 076°16'0 0.0
2017-Dec-10 14:30N 36°50' W 076°16'0 0.0
2017-Dec-10 14:00N 36°50' W 076°16'0 0.0
2017-Dec-10 13:30N 36°50' W 076°16'0 0.0
2017-Dec-10 13:00N 36°50' W 076°16'0 0.0
2017-Dec-10 12:30N 36°50' W 076°16'0 0.0
2017-Dec-10 12:00N 36°50' W 076°16'0 0.0
2017-Dec-10 11:30N 36°50' W 076°16'0 0.0
2017-Dec-10 11:00N 36°50' W 076°16'0 0.0
2017-Dec-10 10:30N 36°50' W 076°16'0 0.0
2017-Dec-10 10:00N 36°50' W 076°16'0 0.0
2017-Dec-10 09:30N 36°50' W 076°16'0 0.0
2017-Dec-10 09:00N 36°50' W 076°16'0 0.0
2017-Dec-10 08:30N 36°50' W 076°16'0 0.0
2017-Dec-10 08:00N 36°50' W 076°16'0 0.0
2017-Dec-10 07:30N 36°50' W 076°16'0 0.0
2017-Dec-10 07:00N 36°50' W 076°16'0 0.0
2017-Dec-10 06:30N 36°50' W 076°16'0 0.0
2017-Dec-10 06:00N 36°50' W 076°16'0 0.0
2017-Dec-10 05:30N 36°50' W 076°16'0 0.0
2017-Dec-10 05:00N 36°50' W 076°16'0 0.0
2017-Dec-10 04:30N 36°50' W 076°16'0 0.0
2017-Dec-10 04:00N 36°50' W 076°16'0 0.0
2017-Dec-10 03:30N 36°50' W 076°16'0 0.0
2017-Dec-10 03:00N 36°50' W 076°16'0 0.0
2017-Dec-10 02:30N 36°50' W 076°16'0 0.0
2017-Dec-10 02:00N 36°50' W 076°16'0 0.0
2017-Dec-10 01:30N 36°50' W 076°16'0 0.0
2017-Dec-10 01:00N 36°50' W 076°16'0 0.0
2017-Dec-10 00:30N 36°50' W 076°16'0 0.0
2017-Dec-10 00:00N 36°50' W 076°16'0 0.0
2017-Dec-09 23:30N 36°50' W 076°16'0 0.0
2017-Dec-09 23:00N 36°50' W 076°16'0 0.1
2017-Dec-09 22:30N 36°50' W 076°16'1 2.4
2017-Dec-09 22:00N 36°50' W 076°18'3 6.4
2017-Dec-09 21:30N 36°47' W 076°18'1 2.4
2017-Dec-09 21:00N 36°46' W 076°18'0 0.0
2017-Dec-09 20:30N 36°46' W 076°18'0 0.0
2017-Dec-09 20:00N 36°46' W 076°18'0 0.0
2017-Dec-09 19:30N 36°46' W 076°18'0 0.0
2017-Dec-09 19:00N 36°46' W 076°18'0 0.0
2017-Dec-09 18:30N 36°46' W 076°18'0 0.0
2017-Dec-09 18:00N 36°46' W 076°18'0 0.0
2017-Dec-09 17:30N 36°46' W 076°18'0 0.0
2017-Dec-09 17:00N 36°46' W 076°18'0 0.0
2017-Dec-09 16:30N 36°46' W 076°18'0 0.0
2017-Dec-09 16:00N 36°46' W 076°18'0 0.0
2017-Dec-09 15:30N 36°46' W 076°18'0 0.0
2017-Dec-09 15:00N 36°46' W 076°18'0 0.0
2017-Dec-09 14:30N 36°46' W 076°18'0 0.0
2017-Dec-09 14:00N 36°46' W 076°18'0 0.0
2017-Dec-09 13:30N 36°46' W 076°18'0 0.0
2017-Dec-09 13:00N 36°46' W 076°18'0 0.0
2017-Dec-09 12:30N 36°46' W 076°18'0 0.1
2017-Dec-09 12:00N 36°46' W 076°18'1 1.3
2017-Dec-09 11:30N 36°47' W 076°18'0 0.8
2017-Dec-09 11:00N 36°47' W 076°18'3 5.1
2017-Dec-09 10:30N 36°49' W 076°17'3 5.6
2017-Dec-09 10:00N 36°52' W 076°19'3 5.4
2017-Dec-09 09:30N 36°54' W 076°20'4 0.1
2017-Dec-07 23:48N 36°57' W 076°24'3 6.5
2017-Dec-07 23:20N 36°56' W 076°20'3 8.0
2017-Dec-07 23:00N 36°54' W 076°20'4 7.4
2017-Dec-07 22:30N 36°51' W 076°18'1 2.6
2017-Dec-07 22:00N 36°50' W 076°16'0 0.0
2017-Dec-07 21:30N 36°50' W 076°16'0 0.0
2017-Dec-07 21:00N 36°50' W 076°16'0 0.0
2017-Dec-07 20:30N 36°50' W 076°16'0 0.0
2017-Dec-07 20:00N 36°50' W 076°16'0 0.0
2017-Dec-07 19:30N 36°50' W 076°16'0 0.0
2017-Dec-07 19:00N 36°50' W 076°16'0 0.0
2017-Dec-07 18:30N 36°50' W 076°16'0 0.0
2017-Dec-07 18:00N 36°50' W 076°16'0 0.0
2017-Dec-07 17:30N 36°50' W 076°16'0 0.0
2017-Dec-07 17:00N 36°50' W 076°16'0 0.0
2017-Dec-07 16:30N 36°50' W 076°16'0 0.4
2017-Dec-07 16:00N 36°50' W 076°16'1 3.0
2017-Dec-07 15:30N 36°49' W 076°17'0 0.0
2017-Dec-07 15:00N 36°49' W 076°17'0 0.0
2017-Dec-07 14:30N 36°49' W 076°17'0 0.0
2017-Dec-07 14:00N 36°49' W 076°17'0 0.1
2017-Dec-07 13:30N 36°49' W 076°17'1 2.8
2017-Dec-07 13:00N 36°50' W 076°16'0 0.0
2017-Dec-07 12:30N 36°50' W 076°16'0 0.0
2017-Dec-07 12:00N 36°50' W 076°16'0 0.0
2017-Dec-07 11:30N 36°50' W 076°16'0 0.0
2017-Dec-07 11:00N 36°50' W 076°16'0 0.0
2017-Dec-07 10:30N 36°50' W 076°16'1 1.9
2017-Dec-07 10:00N 36°51' W 076°17'3 5.6
2017-Dec-07 09:30N 36°52' W 076°20'3 5.5
2017-Dec-07 09:00N 36°55' W 076°20'2 4.6
2017-Dec-07 08:29N 36°57' W 076°22'  
2017-Dec-04 02:45N 36°57' W 076°24'3 7.4
2017-Dec-04 02:22N 36°56' W 076°20'3 8.2
2017-Dec-04 02:00N 36°53' W 076°20'4 7.7
2017-Dec-04 01:30N 36°50' W 076°17'2 3.0
2017-Dec-04 01:00N 36°51' W 076°19'3 5.0
2017-Dec-04 00:30N 36°53' W 076°21'0 0.0
2017-Dec-03 23:53N 36°53' W 076°21'0 0.0
2017-Dec-03 23:14N 36°53' W 076°21'0 0.0
2017-Dec-03 22:46N 36°53' W 076°21'0 0.0
2017-Dec-03 22:28N 36°53' W 076°21'0 0.0
2017-Dec-03 21:57N 36°53' W 076°21'0 0.0
2017-Dec-03 18:12N 36°53' W 076°21'0 0.0
2017-Dec-03 17:52N 36°53' W 076°21'0 0.0
2017-Dec-03 17:09N 36°53' W 076°21'0 0.0
2017-Dec-03 16:55N 36°53' W 076°21'3 7.8
2017-Dec-03 16:30N 36°51' W 076°18'1 2.8
2017-Dec-03 16:00N 36°50' W 076°16'0 0.0
2017-Dec-03 15:30N 36°50' W 076°16'0 0.0
2017-Dec-03 14:59N 36°50' W 076°16'0 0.0
2017-Dec-03 14:31N 36°50' W 076°16'0 0.0
2017-Dec-03 14:00N 36°50' W 076°16'0 0.0
2017-Dec-03 13:30N 36°50' W 076°16'0 0.0
2017-Dec-03 12:58N 36°50' W 076°16'0 0.0
2017-Dec-03 12:31N 36°50' W 076°16'0 0.0
2017-Dec-03 11:49N 36°50' W 076°16'0 0.0
2017-Dec-03 11:30N 36°50' W 076°16'0 0.0
2017-Dec-03 11:01N 36°50' W 076°16'0 0.0
2017-Dec-03 10:30N 36°50' W 076°16'0 0.0
2017-Dec-03 10:00N 36°50' W 076°16'0 0.0
2017-Dec-03 09:18N 36°50' W 076°16'0 0.0
2017-Dec-03 08:59N 36°50' W 076°16'0 0.0
2017-Dec-03 08:28N 36°50' W 076°16'0 0.0
2017-Dec-03 08:00N 36°50' W 076°16'0 0.0
2017-Dec-03 07:30N 36°50' W 076°16'0 0.0
2017-Dec-03 07:00N 36°50' W 076°16'0 0.0
2017-Dec-03 06:30N 36°50' W 076°16'0 0.0
2017-Dec-03 06:00N 36°50' W 076°16'0 0.0
2017-Dec-03 05:30N 36°50' W 076°16'0 0.0
2017-Dec-03 05:00N 36°50' W 076°16'0 0.0
2017-Dec-03 04:30N 36°50' W 076°16'0 0.0
2017-Dec-03 04:00N 36°50' W 076°16'0 0.0
2017-Dec-03 03:30N 36°50' W 076°16'0 0.0
2017-Dec-03 03:00N 36°50' W 076°16'0 0.7
2017-Dec-03 02:30N 36°50' W 076°17'0 0.5
2017-Dec-03 02:00N 36°50' W 076°17'2 4.7
2017-Dec-03 01:30N 36°48' W 076°17'2 4.2
2017-Dec-03 01:00N 36°46' W 076°18'0 0.1
2017-Dec-03 00:30N 36°46' W 076°18'0 0.0
2017-Dec-03 00:00N 36°46' W 076°18'0 0.0
2017-Dec-02 23:30N 36°46' W 076°18'0 0.0
2017-Dec-02 23:00N 36°46' W 076°18'0 0.0
2017-Dec-02 22:30N 36°46' W 076°18'0 0.0
2017-Dec-02 22:00N 36°46' W 076°18'0 0.0
2017-Dec-02 21:30N 36°46' W 076°18'0 0.0
2017-Dec-02 21:00N 36°46' W 076°18'0 0.0
2017-Dec-02 20:30N 36°46' W 076°18'0 0.0
2017-Dec-02 20:00N 36°46' W 076°18'0 0.0
2017-Dec-02 19:30N 36°46' W 076°18'0 0.0
2017-Dec-02 19:00N 36°46' W 076°18'0 0.0
2017-Dec-02 18:30N 36°46' W 076°18'0 0.0
2017-Dec-02 18:01N 36°46' W 076°18'0 0.0
2017-Dec-02 17:30N 36°46' W 076°18'0 0.0
2017-Dec-02 17:00N 36°46' W 076°18'0 0.0
2017-Dec-02 16:30N 36°46' W 076°18'1 2.2
2017-Dec-02 16:00N 36°47' W 076°18'3 5.3
2017-Dec-02 15:30N 36°50' W 076°18'3 5.5
2017-Dec-02 15:00N 36°52' W 076°19'3 5.8
2017-Dec-02 14:30N 36°55' W 076°20'90 3.3
2017-Dec-01 10:57N 38°21' W 075°52'3 6.6
2017-Dec-01 10:29N 38°19' W 075°55'5 6.6
2017-Dec-01 09:45N 38°15' W 075°56'19 6.6
2017-Dec-01 06:48N 37°55' W 075°57'2 7.9
2017-Dec-01 06:30N 37°53' W 075°57'54 8.4
2017-Dec-01 00:04N 37°01' W 076°17'5 7.3
2017-Nov-30 23:26N 36°57' W 076°20'4 8.2
2017-Nov-30 22:59N 36°53' W 076°20'3 7.2
2017-Nov-30 22:30N 36°51' W 076°18'3 6.4
2017-Nov-30 22:00N 36°47' W 076°18'1 2.7
2017-Nov-30 21:30N 36°46' W 076°18'0 0.0
2017-Nov-30 21:00N 36°46' W 076°18'0 0.0
2017-Nov-30 20:30N 36°46' W 076°18'  

Dump ship's entire track history